Time;durP1;ratioP1;P1;durP2;ratioP2;P2;SDS_P1;SDS_P2;PMS_P1;PMS_P2;Temp;Humidity;BMP_temperature;BMP_pressure;BME280_temperature;BME280_humidity;BME280_pressure;Samples;Min_cycle;Max_cycle;Signal;HPM_P1;HPM_P2
2022/01/08 00:00:00;;;;;;;0.70;0.70;;;20.00;58.90;;;;;;4970265;28;20413;-78
2022/01/08 00:02:26;;;;;;;0.90;0.90;;;20.20;58.10;;;;;;4969992;28;20597;-78
2022/01/08 00:04:52;;;;;;;1.10;1.00;;;20.20;48.60;;;;;;4970105;28;20512;-76
2022/01/08 00:07:17;;;;;;;0.87;0.87;;;21.40;49.20;;;;;;4971416;28;20173;-77
2022/01/08 00:09:43;;;;;;;1.10;1.10;;;20.00;54.40;;;;;;4970794;28;20262;-76
2022/01/08 00:12:09;;;;;;;1.03;1.03;;;20.00;48.50;;;;;;4970614;28;20186;-77
2022/01/08 00:14:35;;;;;;;1.37;1.07;;;20.10;58.70;;;;;;4968904;28;20174;-76
2022/01/08 00:17:01;;;;;;;1.20;1.20;;;20.50;48.80;;;;;;4970646;28;20646;-76
2022/01/08 00:19:26;;;;;;;0.93;0.90;;;20.00;48.60;;;;;;4969216;28;20473;-76
2022/01/08 00:21:52;;;;;;;1.20;1.13;;;19.80;48.50;;;;;;4970626;28;20187;-76
2022/01/08 00:24:18;;;;;;;1.40;1.30;;;20.00;58.10;;;;;;4970188;28;20584;-76
2022/01/08 00:26:43;;;;;;;0.70;0.70;;;20.30;48.80;;;;;;4970522;28;20171;-77
2022/01/08 00:29:09;;;;;;;1.60;1.27;;;20.40;48.80;;;;;;4970450;28;20433;-77
2022/01/08 00:31:35;;;;;;;1.20;1.00;;;19.90;48.60;;;;;;4970224;28;20204;-77
2022/01/08 00:34:00;;;;;;;1.10;1.10;;;19.90;49.20;;;;;;4976975;28;20196;-77
2022/01/08 00:36:26;;;;;;;0.87;0.87;;;20.00;48.70;;;;;;4989769;28;20192;-77
2022/01/08 00:38:51;;;;;;;1.30;1.20;;;20.00;48.70;;;;;;4989812;28;20265;-77
2022/01/08 00:41:17;;;;;;;0.97;0.97;;;19.80;48.90;;;;;;4989704;28;20248;-77
2022/01/08 00:43:43;;;;;;;0.97;0.97;;;;;;;;;;4976146;28;20203;-78
2022/01/08 00:46:09;;;;;;;1.10;1.10;;;18.90;47.60;;;;;;4970407;28;20183;-76
2022/01/08 00:48:34;;;;;;;1.00;1.00;;;19.90;49.60;;;;;;4970080;28;20411;-77
2022/01/08 00:51:00;;;;;;;2.03;1.37;;;19.90;48.60;;;;;;4969738;28;20187;-77
2022/01/08 00:53:25;;;;;;;1.03;1.03;;;19.90;48.70;;;;;;4969553;28;20190;-77
2022/01/08 00:55:51;;;;;;;1.00;1.00;;;19.90;48.80;;;;;;4968427;28;20182;-77
2022/01/08 00:58:16;;;;;;;1.27;1.17;;;20.20;48.90;;;;;;4969905;28;20174;-77
2022/01/08 01:00:42;;;;;;;1.07;1.07;;;19.90;48.80;;;;;;4969485;28;20206;-76
2022/01/08 01:03:08;;;;;;;1.00;1.00;;;19.80;48.70;;;;;;4969133;28;20520;-77
2022/01/08 01:05:34;;;;;;;1.00;1.00;;;19.30;48.40;;;;;;4969474;28;20183;-77
2022/01/08 01:08:00;;;;;;;1.43;1.33;;;20.30;49.00;;;;;;4968009;28;20921;-76
2022/01/08 01:10:25;;;;;;;0.83;0.83;;;19.90;48.80;;;;;;4968883;28;20517;-77
2022/01/08 01:12:51;;;;;;;1.27;0.80;;;19.80;48.70;;;;;;4967704;28;20174;-77
2022/01/08 01:15:17;;;;;;;1.03;1.03;;;19.80;48.80;;;;;;4969338;28;20185;-76
2022/01/08 01:17:45;;;;;;;1.67;1.13;;;19.80;48.80;;;;;;4969400;28;20179;-76
2022/01/08 01:20:14;;;;;;;1.23;1.13;;;19.80;49.40;;;;;;4967776;28;20508;-77
2022/01/08 01:23:04;;;;;;;1.93;1.83;;;19.80;48.80;;;;;;4969023;28;20927;-77
2022/01/08 01:25:47;;;;;;;1.07;1.07;;;19.70;58.20;;;;;;4969037;28;20804;-78
2022/01/08 01:41:03;;;;;;;0.80;0.80;;;19.80;48.70;;;;;;4968823;28;20547;-77
2022/01/08 01:47:17;;;;;;;0.80;0.80;;;19.80;48.80;;;;;;4969145;28;20843;-78
2022/01/08 01:49:49;;;;;;;1.07;1.03;;;18.10;57.80;;;;;;4967294;28;20501;-77
2022/01/08 01:52:16;;;;;;;0.67;0.67;;;19.90;48.90;;;;;;4967287;28;20515;-77
2022/01/08 01:54:43;;;;;;;1.10;1.03;;;19.80;48.90;;;;;;4969427;28;20465;-77
2022/01/08 01:57:12;;;;;;;1.00;1.00;;;19.70;48.80;;;;;;4972465;28;20456;-77
2022/01/08 01:59:38;;;;;;;0.90;0.90;;;20.10;49.10;;;;;;4971957;28;20492;-78
2022/01/08 02:02:05;;;;;;;1.60;0.87;;;20.00;49.00;;;;;;4972004;28;20975;-77
2022/01/08 02:04:31;;;;;;;2.70;1.13;;;19.80;48.90;;;;;;4971750;28;20497;-78
2022/01/08 02:06:56;;;;;;;0.80;0.80;;;20.00;49.10;;;;;;4971554;28;20869;-77
2022/01/08 02:09:22;;;;;;;0.87;0.87;;;19.70;59.00;;;;;;4972028;28;20410;-78
2022/01/08 02:12:03;;;;;;;1.50;1.03;;;19.80;49.00;;;;;;4972139;28;20615;-77
2022/01/08 02:14:31;;;;;;;1.00;1.00;;;18.70;48.40;;;;;;4980592;28;20209;-78
2022/01/08 02:16:57;;;;;;;0.80;0.80;;;19.70;49.00;;;;;;4991842;28;20419;-77
2022/01/08 02:19:24;;;;;;;0.80;0.80;;;19.70;49.00;;;;;;4991408;28;20420;-76
2022/01/08 02:21:57;;;;;;;1.27;1.17;;;19.70;49.00;;;;;;4971960;28;20467;-78
2022/01/08 02:24:24;;;;;;;0.90;0.80;;;19.60;49.00;;;;;;4971757;28;20488;-76
2022/01/08 02:26:50;;;;;;;1.17;1.07;;;19.70;49.00;;;;;;4972218;28;20822;-77
2022/01/08 02:29:18;;;;;;;1.03;0.97;;;19.70;49.70;;;;;;4971644;28;20449;-78
2022/01/08 02:32:07;;;;;;;1.00;0.90;;;19.70;49.00;;;;;;4972017;28;20203;-77
2022/01/08 02:34:34;;;;;;;0.80;0.80;;;19.70;49.00;;;;;;4983366;28;20858;-77
2022/01/08 02:37:00;;;;;;;1.20;1.10;;;20.10;49.20;;;;;;4991993;28;20409;-77
2022/01/08 02:39:27;;;;;;;0.70;0.70;;;19.70;49.00;;;;;;4985723;28;20433;-77
2022/01/08 02:41:57;;;;;;;0.77;0.77;;;19.70;49.10;;;;;;4972072;28;20449;-77
2022/01/08 02:44:23;;;;;;;0.90;0.90;;;20.20;49.30;;;;;;4970941;28;20540;-77
2022/01/08 02:46:49;;;;;;;1.00;1.00;;;19.70;49.20;;;;;;4971101;28;20410;-78
2022/01/08 02:49:15;;;;;;;0.97;0.97;;;19.60;49.10;;;;;;4972411;28;20917;-77
2022/01/08 02:51:41;;;;;;;0.70;0.70;;;19.60;49.00;;;;;;4971539;28;20229;-77
2022/01/08 02:54:09;;;;;;;1.10;0.87;;;19.40;49.00;;;;;;4972108;28;20462;-76
2022/01/08 02:56:43;;;;;;;1.00;1.00;;;19.60;49.10;;;;;;4972158;28;20289;-77
2022/01/08 02:59:09;;;;;;;0.80;0.80;;;19.70;49.10;;;;;;4971906;28;20433;-76
2022/01/08 03:01:35;;;;;;;0.90;0.90;;;19.90;49.20;;;;;;4971890;28;20461;-76
2022/01/08 03:04:03;;;;;;;0.70;0.70;;;19.80;49.20;;;;;;4971517;28;20521;-76
2022/01/08 03:06:28;;;;;;;1.20;0.60;;;19.60;58.60;;;;;;4969782;28;20475;-77
2022/01/08 03:08:54;;;;;;;0.70;0.70;;;19.60;49.10;;;;;;4971828;28;20876;-77
2022/01/08 03:11:19;;;;;;;0.80;0.80;;;19.60;49.10;;;;;;4971926;28;20199;-76
2022/01/08 03:13:45;;;;;;;1.07;0.50;;;19.60;49.10;;;;;;4971361;28;20214;-77
2022/01/08 03:16:11;;;;;;;3.80;0.60;;;20.00;49.50;;;;;;4971926;28;20292;-77
2022/01/08 03:18:37;;;;;;;1.17;0.80;;;19.60;49.20;;;;;;4986334;28;20221;-78
2022/01/08 03:21:13;;;;;;;0.70;0.70;;;19.90;49.50;;;;;;4971324;28;20205;-78
2022/01/08 03:23:50;;;;;;;0.87;0.87;;;19.60;49.20;;;;;;4971139;28;20666;-78
2022/01/08 03:26:17;;;;;;;1.20;1.10;;;20.00;49.40;;;;;;4970086;28;20485;-77
2022/01/08 03:28:43;;;;;;;0.77;0.77;;;19.60;55.60;;;;;;4971213;28;20910;-78
2022/01/08 03:31:10;;;;;;;0.83;0.70;;;19.50;49.20;;;;;;4971458;28;20825;-78
2022/01/08 03:33:35;;;;;;;0.80;0.70;;;19.60;49.30;;;;;;4972734;28;20425;-77
2022/01/08 03:36:01;;;;;;;0.90;0.80;;;19.90;49.50;;;;;;4971216;28;20433;-78
2022/01/08 03:38:27;;;;;;;1.07;0.97;;;19.70;49.40;;;;;;4971107;28;20201;-78
2022/01/08 03:40:52;;;;;;;1.00;0.90;;;19.60;49.30;;;;;;4971108;28;20552;-77
2022/01/08 03:43:18;;;;;;;0.75;0.75;;;19.60;49.40;;;;;;4970698;28;20191;-77
2022/01/08 03:45:44;;;;;;;1.63;0.90;;;19.50;50.00;;;;;;4971155;28;20245;-77
2022/01/08 03:51:08;;;;;;;0.70;0.70;;;19.50;49.30;;;;;;4948364;28;20489;-77
2022/01/08 03:53:33;;;;;;;0.80;0.80;;;19.50;49.40;;;;;;4970505;28;20446;-78
2022/01/08 03:55:59;;;;;;;0.83;0.83;;;19.60;49.40;;;;;;4985772;28;20175;-77
2022/01/08 03:58:25;;;;;;;0.70;0.57;;;19.70;49.40;;;;;;4970809;28;20205;-77
2022/01/08 04:00:51;;;;;;;1.27;0.90;;;19.50;49.30;;;;;;4970681;28;20190;-77
2022/01/08 04:03:18;;;;;;;0.80;0.80;;;19.60;49.50;;;;;;4970111;28;20466;-77
2022/01/08 04:05:48;;;;;;;0.70;0.70;;;19.70;49.50;;;;;;4970683;28;20175;-78
2022/01/08 04:08:15;;;;;;;0.60;0.60;;;19.50;49.40;;;;;;4970955;28;20518;-79
2022/01/08 04:10:41;;;;;;;0.60;0.60;;;19.60;49.50;;;;;;4970676;28;20451;-78
2022/01/08 04:13:16;;;;;;;1.63;0.90;;;19.50;49.40;;;;;;4970605;28;20410;-78
2022/01/08 04:15:45;;;;;;;1.60;0.80;;;20.10;49.70;;;;;;4970739;28;20414;-77
2022/01/08 04:18:11;;;;;;;0.77;0.57;;;19.70;49.60;;;;;;4969661;28;20422;-77
2022/01/08 04:21:11;;;;;;;0.80;0.80;;;19.50;49.50;;;;;;4970129;28;20434;-78
2022/01/08 04:23:36;;;;;;;0.93;0.90;;;19.80;49.70;;;;;;4969984;28;20210;-78
2022/01/08 04:26:03;;;;;;;0.50;0.50;;;19.80;49.60;;;;;;4970484;28;20414;-78
2022/01/08 04:28:29;;;;;;;0.70;0.63;;;19.50;49.50;;;;;;4970236;28;20500;-78
2022/01/08 04:30:54;;;;;;;1.03;0.70;;;19.50;49.50;;;;;;4970368;28;20537;-77
2022/01/08 04:33:20;;;;;;;0.73;0.73;;;19.60;49.60;;;;;;4969017;28;20422;-77
2022/01/08 04:35:46;;;;;;;0.70;0.70;;;20.50;50.00;;;;;;4969256;28;20193;-77
2022/01/08 04:38:12;;;;;;;0.60;0.60;;;19.50;49.60;;;;;;4970709;28;20183;-77
2022/01/08 04:40:38;;;;;;;1.33;0.70;;;19.40;49.50;;;;;;4970490;28;20663;-78
2022/01/08 04:43:03;;;;;;;0.70;0.70;;;19.50;49.60;;;;;;4970609;28;20418;-77
2022/01/08 04:45:30;;;;;;;0.50;0.50;;;19.50;49.70;;;;;;4970155;28;20783;-78
2022/01/08 04:47:57;;;;;;;0.60;0.60;;;19.50;49.70;;;;;;4970471;28;20178;-77
2022/01/08 04:50:24;;;;;;;0.60;0.60;;;19.50;49.70;;;;;;4969638;28;20449;-78
2022/01/08 04:52:49;;;;;;;4.30;0.70;;;19.50;49.70;;;;;;4969965;28;20563;-78
2022/01/08 04:55:15;;;;;;;1.30;0.90;;;19.40;49.60;;;;;;4969856;28;20443;-79
2022/01/08 04:57:40;;;;;;;0.50;0.50;;;19.30;49.60;;;;;;4969707;28;20646;-77
2022/01/08 05:00:07;;;;;;;0.73;0.60;;;19.50;49.70;;;;;;4970167;28;20273;-77
2022/01/08 05:02:32;;;;;;;0.90;0.80;;;19.50;49.70;;;;;;4970213;28;20307;-77
2022/01/08 05:04:58;;;;;;;0.93;0.63;;;18.10;49.10;;;;;;4969861;28;20462;-77
2022/01/08 05:07:23;;;;;;;0.53;0.53;;;19.80;50.00;;;;;;4970320;28;20187;-77
2022/01/08 05:09:49;;;;;;;0.60;0.60;;;19.60;59.10;;;;;;4970223;28;20249;-77
2022/01/08 05:12:14;;;;;;;0.70;0.70;;;19.80;50.00;;;;;;4970386;28;20257;-78
2022/01/08 05:14:42;;;;;;;0.80;0.63;;;19.50;49.80;;;;;;4969876;28;20259;-77
2022/01/08 05:17:08;;;;;;;0.60;0.60;;;19.70;49.90;;;;;;4970258;28;20614;-77
2022/01/08 05:19:49;;;;;;;1.00;0.57;;;19.50;49.80;;;;;;4970439;28;20418;-77
2022/01/08 05:22:24;;;;;;;0.50;0.50;;;19.70;49.90;;;;;;4972587;28;20190;-78
2022/01/08 05:24:50;;;;;;;1.20;0.90;;;19.40;49.80;;;;;;4973194;28;20461;-77
2022/01/08 05:27:17;;;;;;;0.60;0.60;;;19.70;49.90;;;;;;4973546;28;20422;-78
2022/01/08 05:29:47;;;;;;;0.80;0.80;;;19.50;49.80;;;;;;4977556;28;20476;-78
2022/01/08 05:32:16;;;;;;;0.80;0.60;;;19.50;49.80;;;;;;4978329;28;20462;-78
2022/01/08 05:34:48;;;;;;;0.50;0.50;;;19.70;50.00;;;;;;4976510;28;20509;-78
2022/01/08 05:37:15;;;;;;;1.23;0.60;;;19.50;49.90;;;;;;4977806;28;20516;-78
2022/01/08 05:39:41;;;;;;;0.60;0.60;;;19.40;49.80;;;;;;4976889;28;20546;-79
2022/01/08 05:42:07;;;;;;;0.50;0.50;;;19.50;56.90;;;;;;4976560;28;20441;-77
2022/01/08 05:44:33;;;;;;;0.60;0.60;;;19.50;49.90;;;;;;4978470;28;20552;-77
2022/01/08 05:46:58;;;;;;;0.53;0.50;;;19.40;49.90;;;;;;4977283;28;20210;-78
2022/01/08 05:49:24;;;;;;;0.60;0.57;;;19.60;50.00;;;;;;4976511;28;20436;-78
2022/01/08 05:51:50;;;;;;;0.50;0.40;;;20.10;50.30;;;;;;4974513;28;20194;-78
2022/01/08 05:54:15;;;;;;;0.63;0.63;;;19.40;50.00;;;;;;4973774;28;20230;-78
2022/01/08 05:56:42;;;;;;;0.60;0.60;;;19.90;50.20;;;;;;4973718;28;20179;-78
2022/01/08 05:59:07;;;;;;;0.60;0.60;;;20.10;50.30;;;;;;4973958;28;20178;-79
2022/01/08 06:01:34;;;;;;;0.50;0.50;;;19.40;50.00;;;;;;4973752;28;20441;-78
2022/01/08 06:04:00;;;;;;;0.50;0.40;;;19.50;50.00;;;;;;4973533;28;20217;-78
2022/01/08 06:06:26;;;;;;;0.63;0.63;;;19.60;50.10;;;;;;4973821;28;20406;-78
2022/01/08 06:08:52;;;;;;;0.57;0.57;;;19.30;49.90;;;;;;4973650;28;20549;-78
2022/01/08 06:11:17;;;;;;;0.50;0.50;;;19.40;50.10;;;;;;4973259;28;20592;-78
2022/01/08 06:13:43;;;;;;;0.70;0.70;;;19.30;50.20;;;;;;4971007;28;20273;-78
2022/01/08 06:16:09;;;;;;;0.70;0.70;;;19.30;50.00;;;;;;4971542;28;20204;-78
2022/01/08 06:18:35;;;;;;;0.50;0.50;;;19.70;50.20;;;;;;4972535;28;20496;-78
2022/01/08 06:21:01;;;;;;;0.70;0.70;;;19.80;50.30;;;;;;4972733;28;20670;-78
2022/01/08 06:23:27;;;;;;;1.10;0.60;;;19.40;50.10;;;;;;4972333;28;20429;-78
2022/01/08 06:25:53;;;;;;;0.80;0.80;;;19.90;50.40;;;;;;4972824;28;20567;-78
2022/01/08 06:28:19;;;;;;;0.60;0.60;;;20.00;50.40;;;;;;4972400;28;20179;-79
2022/01/08 06:30:44;;;;;;;0.67;0.57;;;19.40;50.20;;;;;;4972727;28;20222;-78
2022/01/08 06:33:10;;;;;;;0.60;0.60;;;19.30;50.10;;;;;;4972572;28;20418;-78
2022/01/08 06:35:36;;;;;;;0.50;0.50;;;19.40;50.20;;;;;;4972198;28;20195;-78
2022/01/08 06:38:01;;;;;;;0.50;0.50;;;19.40;50.10;;;;;;4971066;28;20186;-78
2022/01/08 06:40:27;;;;;;;1.20;0.60;;;19.30;50.10;;;;;;4985867;28;20294;-78
2022/01/08 06:42:52;;;;;;;0.60;0.60;;;19.70;50.30;;;;;;4972450;28;20178;-78
2022/01/08 06:45:18;;;;;;;0.83;0.50;;;19.50;50.20;;;;;;4972075;28;20289;-78
2022/01/08 06:47:45;;;;;;;0.50;0.50;;;19.40;50.20;;;;;;4972194;28;20226;-78
2022/01/08 06:50:11;;;;;;;0.50;0.50;;;19.40;50.20;;;;;;4972008;28;20194;-77
2022/01/08 06:52:37;;;;;;;1.23;0.70;;;19.40;50.20;;;;;;4971690;28;20418;-78
2022/01/08 06:55:04;;;;;;;0.90;0.90;;;19.50;50.40;;;;;;4971940;28;20647;-77
2022/01/08 06:57:29;;;;;;;0.50;0.50;;;19.40;50.90;;;;;;4971961;28;20418;-77
2022/01/08 06:59:55;;;;;;;0.50;0.43;;;19.50;60.80;;;;;;4971963;28;20916;-78
2022/01/08 07:02:21;;;;;;;0.70;0.50;;;19.40;50.30;;;;;;4972081;28;20722;-78
2022/01/08 07:04:46;;;;;;;0.60;0.60;;;19.40;50.30;;;;;;4971882;28;20206;-78
2022/01/08 07:07:12;;;;;;;0.57;0.57;;;19.40;50.30;;;;;;4971631;28;20702;-78
2022/01/08 07:09:37;;;;;;;0.60;0.60;;;19.30;50.30;;;;;;4971866;28;20186;-78
2022/01/08 07:12:03;;;;;;;0.60;0.60;;;19.90;50.60;;;;;;4972266;28;20205;-78
2022/01/08 07:14:29;;;;;;;0.60;0.60;;;19.80;50.60;;;;;;4971527;28;20666;-79
2022/01/08 07:16:54;;;;;;;0.50;0.50;;;19.30;50.30;;;;;;4966852;28;20436;-79
2022/01/08 07:19:20;;;;;;;0.60;0.60;;;19.50;50.40;;;;;;4971280;28;20271;-78
2022/01/08 07:21:46;;;;;;;0.53;0.53;;;19.40;50.40;;;;;;4971532;28;20243;-78
2022/01/08 07:24:12;;;;;;;4.87;0.63;;;19.40;50.30;;;;;;4971360;28;21023;-78
2022/01/08 07:26:37;;;;;;;0.70;0.60;;;19.90;50.60;;;;;;4969730;28;20174;-79
2022/01/08 07:29:03;;;;;;;0.50;0.50;;;19.90;50.60;;;;;;4970769;28;20538;-78
2022/01/08 07:31:29;;;;;;;0.50;0.50;;;20.30;50.80;;;;;;4968217;28;20258;-78
2022/01/08 07:33:54;;;;;;;0.50;0.50;;;19.40;50.30;;;;;;4972591;28;20194;-78
2022/01/08 07:36:20;;;;;;;0.60;0.60;;;19.50;50.40;;;;;;4971471;28;20194;-79
2022/01/08 07:38:47;;;;;;;0.70;0.70;;;19.50;50.40;;;;;;4971646;28;20668;-79
2022/01/08 07:41:13;;;;;;;0.60;0.60;;;19.40;50.20;;;;;;4971441;28;20500;-78
2022/01/08 07:43:39;;;;;;;0.70;0.70;;;19.50;50.30;;;;;;4970761;28;20520;-78
2022/01/08 07:46:04;;;;;;;0.50;0.50;;;19.50;50.30;;;;;;4971408;28;20414;-79
2022/01/08 07:48:30;;;;;;;0.60;0.60;;;20.00;50.50;;;;;;4970968;28;20421;-78
2022/01/08 07:50:56;;;;;;;0.60;0.60;;;19.50;50.30;;;;;;4971268;28;20567;-78
2022/01/08 07:53:21;;;;;;;0.60;0.60;;;19.80;50.40;;;;;;4970716;28;20363;-77
2022/01/08 07:55:47;;;;;;;0.60;0.60;;;19.40;50.20;;;;;;4971098;28;20437;-78
2022/01/08 07:58:13;;;;;;;0.60;0.43;;;19.60;50.20;;;;;;4971056;28;20250;-78
2022/01/08 08:00:38;;;;;;;0.67;0.67;;;19.60;50.20;;;;;;4970952;28;20206;-78
2022/01/08 08:03:04;;;;;;;0.50;0.50;;;19.40;50.10;;;;;;4971125;28;20182;-78
2022/01/08 08:05:32;;;;;;;0.50;0.50;;;19.50;50.20;;;;;;4970330;28;20690;-78
2022/01/08 08:07:58;;;;;;;0.70;0.70;;;19.70;50.30;;;;;;4971285;28;20174;-78
2022/01/08 08:10:25;;;;;;;0.60;0.50;;;19.50;50.10;;;;;;4970809;28;20452;-78
2022/01/08 08:12:53;;;;;;;1.03;0.60;;;19.60;50.30;;;;;;4969040;28;20233;-78
2022/01/08 08:15:20;;;;;;;0.60;0.60;;;19.60;50.20;;;;;;4970624;28;20452;-78
2022/01/08 08:17:46;;;;;;;0.87;0.87;;;19.10;49.90;;;;;;4970518;28;20929;-75
2022/01/08 08:20:12;;;;;;;0.80;0.80;;;19.50;49.00;;;;;;4969251;28;20446;-75
2022/01/08 08:22:39;;;;;;;1.20;1.10;;;19.50;47.10;;;;;;4958099;28;20431;-78
2022/01/08 08:25:05;;;;;;;5.10;1.53;;;19.20;45.20;;;;;;4956797;28;21115;-78
2022/01/08 08:27:31;;;;;;;2.17;1.13;;;19.10;43.00;;;;;;4957214;28;21066;-78
2022/01/08 08:29:57;;;;;;;2.73;1.53;;;19.10;52.20;;;;;;4959406;28;20421;-78
2022/01/08 08:32:22;;;;;;;3.10;1.77;;;18.60;40.90;;;;;;4959561;28;20566;-78
2022/01/08 08:34:50;;;;;;;1.83;1.37;;;19.10;42.30;;;;;;4963319;28;20194;-78
2022/01/08 08:37:16;;;;;;;3.27;2.03;;;19.10;43.10;;;;;;4959254;28;20198;-77
2022/01/08 08:39:42;;;;;;;4.93;1.77;;;17.90;43.10;;;;;;4956980;28;20876;-77
2022/01/08 08:42:07;;;;;;;2.07;1.90;;;18.10;43.50;;;;;;4959237;28;20217;-77
2022/01/08 08:44:33;;;;;;;2.00;1.73;;;18.10;43.90;;;;;;4958877;28;20410;-78
2022/01/08 08:46:58;;;;;;;2.63;1.63;;;18.10;44.00;;;;;;4959241;28;20205;-77
2022/01/08 08:49:24;;;;;;;1.77;1.40;;;18.20;44.20;;;;;;4958789;28;20186;-78
2022/01/08 08:51:50;;;;;;;4.20;1.53;;;18.20;44.20;;;;;;4956354;28;20206;-77
2022/01/08 08:54:15;;;;;;;1.97;0.93;;;17.80;44.20;;;;;;4956651;28;20194;-77
2022/01/08 08:56:42;;;;;;;4.53;2.57;;;18.20;44.50;;;;;;4958668;28;20259;-77
2022/01/08 08:59:09;;;;;;;2.40;1.47;;;18.90;44.90;;;;;;4956504;28;20187;-78
2022/01/08 09:01:35;;;;;;;2.40;1.40;;;18.10;44.50;;;;;;4958206;28;20541;-78
2022/01/08 09:04:00;;;;;;;0.90;0.90;;;18.40;44.80;;;;;;4957343;28;21082;-78
2022/01/08 09:06:26;;;;;;;3.10;1.60;;;18.20;44.80;;;;;;4958355;28;20179;-77
2022/01/08 09:08:53;;;;;;;2.00;1.03;;;17.80;44.50;;;;;;4958661;28;20179;-77
2022/01/08 09:11:19;;;;;;;1.40;1.30;;;17.90;45.00;;;;;;4958407;28;20430;-77
2022/01/08 09:13:45;;;;;;;1.93;1.40;;;17.80;44.60;;;;;;4958478;28;20429;-77
2022/01/08 09:16:10;;;;;;;2.20;1.20;;;18.30;44.90;;;;;;4957905;28;20213;-77
2022/01/08 09:18:37;;;;;;;1.87;1.03;;;17.90;44.60;;;;;;4958296;28;20183;-77
2022/01/08 09:21:04;;;;;;;4.10;1.30;;;18.20;44.80;;;;;;4958124;28;20198;-78
2022/01/08 09:23:31;;;;;;;1.40;1.30;;;18.20;44.80;;;;;;4972341;28;20564;-77
2022/01/08 09:25:57;;;;;;;2.30;1.30;;;18.20;44.90;;;;;;4957640;28;20426;-78
2022/01/08 09:28:23;;;;;;;1.70;1.00;;;18.20;44.80;;;;;;4957726;28;20422;-79
2022/01/08 09:30:48;;;;;;;1.10;1.00;;;17.90;44.70;;;;;;4957756;28;20452;-78
2022/01/08 09:33:14;;;;;;;1.30;1.10;;;18.20;44.90;;;;;;4958383;28;20186;-77
2022/01/08 09:35:40;;;;;;;1.67;1.57;;;19.00;45.40;;;;;;4962986;28;20991;-78
2022/01/08 09:38:06;;;;;;;2.40;1.50;;;18.20;45.10;;;;;;4958264;28;20291;-77
2022/01/08 09:40:31;;;;;;;1.67;1.07;;;18.20;45.30;;;;;;4958383;28;20210;-78
2022/01/08 09:42:57;;;;;;;2.13;1.03;;;18.20;45.20;;;;;;4973142;28;20330;-78
2022/01/08 09:45:23;;;;;;;0.83;0.83;;;19.20;45.70;;;;;;4957815;28;20202;-77
2022/01/08 09:47:49;;;;;;;2.73;1.60;;;19.40;45.90;;;;;;4958216;28;20414;-77
2022/01/08 09:50:14;;;;;;;1.73;1.63;;;17.90;45.10;;;;;;4958045;28;20281;-77
2022/01/08 09:52:40;;;;;;;33.87;10.60;;;18.20;45.40;;;;;;4957903;28;20179;-78
2022/01/08 09:55:06;;;;;;;95.87;23.87;;;18.30;45.30;;;;;;4957762;28;20190;-77
2022/01/08 09:57:32;;;;;;;128.20;34.90;;;18.20;45.30;;;;;;4957789;28;20186;-78
2022/01/08 09:59:58;;;;;;;147.27;36.20;;;18.20;55.60;;;;;;4957731;28;20881;-78
2022/01/08 10:02:24;;;;;;;129.77;38.57;;;18.20;45.50;;;;;;4958163;28;20187;-77
2022/01/08 10:04:50;;;;;;;124.50;37.13;;;18.40;45.50;;;;;;4956022;28;20210;-78
2022/01/08 10:07:24;;;;;;;134.40;40.50;;;18.30;45.40;;;;;;4958256;28;20406;-77
2022/01/08 10:10:19;;;;;;;141.00;42.90;;;18.10;51.70;;;;;;4958103;28;20417;-78
2022/01/08 10:12:53;;;;;;;142.40;40.17;;;18.20;45.40;;;;;;4949070;28;20430;-77
2022/01/08 10:18:33;;;;;;;142.83;42.80;;;19.10;45.90;;;;;;4961519;28;20421;-78
2022/01/08 10:21:02;;;;;;;134.47;39.37;;;18.30;45.50;;;;;;4961562;28;20433;-78
2022/01/08 10:23:32;;;;;;;137.43;39.67;;;19.50;46.10;;;;;;4959483;28;20426;-78
2022/01/08 10:26:03;;;;;;;140.90;40.77;;;18.20;45.40;;;;;;4961265;28;20533;-78
2022/01/08 10:28:45;;;;;;;125.33;40.77;;;18.30;45.40;;;;;;4961313;28;21071;-78
2022/01/08 10:31:25;;;;;;;133.10;42.33;;;18.60;45.70;;;;;;4959747;28;20442;-77
2022/01/08 10:34:04;;;;;;;123.33;37.63;;;18.30;45.50;;;;;;4966670;28;20420;-78
2022/01/08 10:36:35;;;;;;;130.20;38.70;;;18.30;45.50;;;;;;4942170;28;20430;-78
2022/01/08 10:39:06;;;;;;;144.40;39.77;;;18.30;45.40;;;;;;4942341;28;20509;-78
2022/01/08 10:41:32;;;;;;;122.60;37.60;;;18.20;45.50;;;;;;4940409;28;21042;-78
2022/01/08 10:44:16;;;;;;;128.23;38.63;;;18.30;45.60;;;;;;4947195;28;20469;-78
2022/01/08 10:47:02;;;;;;;148.33;41.63;;;18.30;45.60;;;;;;4961236;28;20228;-78
2022/01/08 10:49:38;;;;;;;154.30;46.50;;;18.20;46.00;;;;;;4960897;28;20418;-77
2022/01/08 10:52:10;;;;;;;175.93;50.23;;;18.70;46.60;;;;;;4960737;28;21060;-78
2022/01/08 10:54:38;;;;;;;153.30;46.70;;;18.30;46.60;;;;;;4960528;28;20520;-78
2022/01/08 10:57:07;;;;;;;165.27;47.43;;;18.10;46.60;;;;;;4960709;28;20434;-77
2022/01/08 10:59:34;;;;;;;160.33;48.70;;;18.60;47.00;;;;;;4958958;28;21182;-78
2022/01/08 11:02:09;;;;;;;154.60;44.93;;;18.50;47.00;;;;;;4960367;28;20446;-78
2022/01/08 11:04:41;;;;;;;160.00;47.00;;;18.80;47.20;;;;;;4960304;28;20597;-78
2022/01/08 11:07:27;;;;;;;143.73;43.27;;;18.60;47.00;;;;;;4960806;28;20410;-78
2022/01/08 11:10:05;;;;;;;162.27;48.90;;;18.70;58.00;;;;;;4960728;28;20446;-78
2022/01/08 11:12:36;;;;;;;159.60;46.83;;;19.30;47.50;;;;;;4960859;28;21038;-78
2022/01/08 11:17:39;;;;;;;166.90;49.93;;;18.70;47.30;;;;;;4960606;28;20434;-78
2022/01/08 11:20:12;;;;;;;172.97;48.10;;;18.90;58.60;;;;;;4960548;28;20422;-77
2022/01/08 11:22:40;;;;;;;153.97;47.70;;;18.80;47.20;;;;;;4958819;28;20519;-77
2022/01/08 11:25:12;;;;;;;154.13;48.70;;;19.60;47.70;;;;;;4960351;28;20517;-77
2022/01/08 11:28:05;;;;;;;140.07;46.70;;;18.90;47.40;;;;;;4960314;28;20418;-78
2022/01/08 11:30:37;;;;;;;142.20;43.93;;;18.90;47.30;;;;;;4960061;28;20438;-78
2022/01/08 11:33:09;;;;;;;133.73;43.77;;;18.90;47.30;;;;;;4960129;28;20437;-75
2022/01/08 11:35:37;;;;;;;145.70;46.90;;;19.00;47.40;;;;;;4959671;28;20544;-77
2022/01/08 11:38:06;;;;;;;141.73;45.00;;;18.80;47.40;;;;;;4960208;28;20532;-76
2022/01/08 11:40:32;;;;;;;142.53;44.10;;;18.90;47.50;;;;;;4960059;28;20492;-76
2022/01/08 11:43:03;;;;;;;159.57;48.77;;;19.00;47.70;;;;;;4958098;28;20516;-76
2022/01/08 11:45:32;;;;;;;152.87;46.93;;;19.10;47.70;;;;;;4959416;28;20210;-76
2022/01/08 11:48:01;;;;;;;149.67;45.77;;;19.20;58.30;;;;;;4960156;28;20946;-76
2022/01/08 11:50:29;;;;;;;148.40;43.83;;;19.50;48.10;;;;;;4960238;28;20521;-76
2022/01/08 11:53:11;;;;;;;138.93;44.57;;;19.20;47.80;;;;;;4959763;28;20574;-77
2022/01/08 11:55:37;;;;;;;130.60;46.07;;;19.40;47.90;;;;;;4959501;28;21233;-76
2022/01/08 11:58:30;;;;;;;146.87;40.30;;;19.30;47.90;;;;;;4960003;28;20493;-77
2022/01/08 12:00:58;;;;;;;101.57;33.80;;;19.30;47.80;;;;;;4959741;28;20551;-77
2022/01/08 12:03:50;;;;;;;113.23;36.40;;;19.50;58.30;;;;;;4959511;28;20425;-77
2022/01/08 12:06:19;;;;;;;97.27;35.17;;;19.20;47.80;;;;;;4957494;28;20438;-77
2022/01/08 12:09:08;;;;;;;124.80;37.17;;;19.90;48.90;;;;;;4959694;28;20509;-74
2022/01/08 12:11:42;;;;;;;114.13;30.80;;;19.50;51.50;;;;;;4959637;28;20706;-71
2022/01/08 12:14:37;;;;;;;96.00;29.07;;;19.70;49.30;;;;;;4959858;28;20405;-73
2022/01/08 12:17:13;;;;;;;93.90;30.27;;;19.80;49.10;;;;;;4954790;28;20434;-75
2022/01/08 12:19:50;;;;;;;68.63;22.83;;;20.00;53.00;;;;;;4958276;28;20422;-73
2022/01/08 12:22:16;;;;;;;53.23;18.60;;;;;;;;;;4959336;28;20430;-73
2022/01/08 12:24:43;;;;;;;66.57;21.00;;;20.10;50.20;;;;;;4959582;28;20527;-73
2022/01/08 12:27:33;;;;;;;63.10;22.43;;;20.20;48.10;;;;;;4959717;28;20178;-75
2022/01/08 12:30:01;;;;;;;61.30;18.67;;;;;;;;;;4940486;28;20408;-74
2022/01/08 12:35:01;;;;;;;71.87;21.50;;;;;;;;;;4961892;28;20560;-74
2022/01/08 12:37:38;;;;;;;67.27;19.47;;;;;;;;;;4955764;28;20430;-75
2022/01/08 12:40:05;;;;;;;64.97;20.80;;;;;;;;;;4953093;28;20532;-74
2022/01/08 12:42:31;;;;;;;64.43;20.73;;;;;;;;;;4958709;28;20429;-73
2022/01/08 12:45:03;;;;;;;76.50;22.57;;;;;;;;;;4958798;28;20537;-73
2022/01/08 12:47:38;;;;;;;56.63;19.07;;;;;;;;;;4959361;28;20418;-74
2022/01/08 12:50:41;;;;;;;70.40;22.00;;;20.50;61.10;;;;;;4958937;28;21095;-74
2022/01/08 12:53:07;;;;;;;54.60;16.97;;;;;;;;;;4957097;28;20437;-74
2022/01/08 12:55:35;;;;;;;48.97;16.30;;;20.50;52.80;;;;;;4958810;28;20516;-74
2022/01/08 12:58:11;;;;;;;43.80;15.60;;;20.40;55.30;;;;;;4958962;28;20461;-74
2022/01/08 13:00:59;;;;;;;48.93;15.90;;;21.00;52.90;;;;;;4958635;28;20463;-74
2022/01/08 13:03:55;;;;;;;44.67;16.23;;;20.40;52.90;;;;;;4959151;28;20504;-74
2022/01/08 13:06:40;;;;;;;42.80;16.80;;;20.60;52.50;;;;;;4946898;28;20555;-74
2022/01/08 13:09:08;;;;;;;43.10;16.20;;;;;;;;;;4957107;28;20484;-74
2022/01/08 13:11:35;;;;;;;44.70;15.90;;;20.40;54.50;;;;;;4958913;28;20445;-74
2022/01/08 13:14:04;;;;;;;42.80;15.10;;;20.40;51.70;;;;;;4958568;28;20441;-74
2022/01/08 13:16:37;;;;;;;45.33;15.07;;;20.40;50.90;;;;;;4958945;28;20516;-74